Time;durP1;ratioP1;P1;durP2;ratioP2;P2;SDS_P1;SDS_P2;PMS_P1;PMS_P2;Temp;Humidity;BMP_temperature;BMP_pressure;BME280_temperature;BME280_humidity;BME280_pressure;Samples;Min_cycle;Max_cycle;Signal;HPM_P1;HPM_P2
2023/02/10 00:02:23;;;;;;;5.32;3.63;;;18.10;42.20;;;;;;5032022;28;20658;-68
2023/02/10 00:04:50;;;;;;;5.43;3.88;;;18.10;42.90;;;;;;5032092;28;20220;-68
2023/02/10 00:07:18;;;;;;;6.22;4.35;;;18.10;42.30;;;;;;5031955;28;20239;-68
2023/02/10 00:09:45;;;;;;;6.10;4.20;;;18.10;42.30;;;;;;5032062;28;20220;-68
2023/02/10 00:12:13;;;;;;;7.07;4.35;;;18.10;42.20;;;;;;5031950;28;20262;-68
2023/02/10 00:14:42;;;;;;;5.32;4.20;;;18.10;42.30;;;;;;5034031;28;20306;-69
2023/02/10 00:17:09;;;;;;;4.90;3.95;;;18.10;42.30;;;;;;5035198;28;20278;-68
2023/02/10 00:19:36;;;;;;;6.63;4.40;;;18.10;42.30;;;;;;5035919;28;20278;-68
2023/02/10 00:22:03;;;;;;;6.55;4.57;;;18.10;42.30;;;;;;5035882;28;20192;-67
2023/02/10 00:24:31;;;;;;;6.18;4.47;;;18.00;42.20;;;;;;5035880;28;20220;-68
2023/02/10 00:26:58;;;;;;;6.35;4.32;;;18.00;42.20;;;;;;5035213;28;20720;-68
2023/02/10 00:29:26;;;;;;;5.50;4.13;;;18.00;42.20;;;;;;5035540;28;20223;-68
2023/02/10 00:31:54;;;;;;;6.95;4.28;;;18.00;42.20;;;;;;5035214;28;20197;-68
2023/02/10 00:34:22;;;;;;;5.68;4.32;;;18.00;42.20;;;;;;5035421;28;20189;-68
2023/02/10 00:36:51;;;;;;;5.28;4.20;;;18.00;42.20;;;;;;5035254;28;20215;-68
2023/02/10 00:39:18;;;;;;;6.28;4.00;;;18.00;42.30;;;;;;5035396;28;20193;-68
2023/02/10 00:41:45;;;;;;;5.88;4.20;;;18.00;42.20;;;;;;5017353;28;20228;-68
2023/02/10 00:44:12;;;;;;;5.75;4.20;;;18.00;42.30;;;;;;5035369;28;20192;-68
2023/02/10 00:46:40;;;;;;;4.90;3.85;;;18.00;42.30;;;;;;5034792;28;20630;-68
2023/02/10 00:49:11;;;;;;;7.03;4.15;;;18.00;42.30;;;;;;5035175;28;20597;-68
2023/02/10 00:51:38;;;;;;;6.20;4.22;;;18.00;42.30;;;;;;5035211;28;20204;-68
2023/02/10 00:54:05;;;;;;;5.03;4.00;;;18.00;42.30;;;;;;5034828;28;20720;-68
2023/02/10 00:56:32;;;;;;;6.80;4.47;;;18.00;42.30;;;;;;5034955;28;20216;-68
2023/02/10 00:58:59;;;;;;;5.93;4.20;;;18.00;42.40;;;;;;5034998;28;20608;-68
2023/02/10 01:01:26;;;;;;;5.28;3.72;;;18.00;42.30;;;;;;5034895;28;20637;-68
2023/02/10 01:03:53;;;;;;;5.95;3.95;;;17.90;42.20;;;;;;5034918;28;20189;-68
2023/02/10 01:06:22;;;;;;;5.55;3.78;;;18.00;42.40;;;;;;5034741;28;20224;-68
2023/02/10 01:08:49;;;;;;;5.32;4.15;;;17.90;42.30;;;;;;5034933;28;20250;-68
2023/02/10 01:11:18;;;;;;;5.25;4.07;;;17.90;42.30;;;;;;5034689;28;20216;-68
2023/02/10 01:13:45;;;;;;;4.90;3.92;;;17.90;42.30;;;;;;5034508;28;20193;-68
2023/02/10 01:16:16;;;;;;;6.05;4.03;;;17.90;42.30;;;;;;5034278;28;20289;-68
2023/02/10 01:18:45;;;;;;;6.10;3.90;;;17.90;42.30;;;;;;5034565;28;20219;-68
2023/02/10 01:21:15;;;;;;;5.53;4.18;;;17.90;42.30;;;;;;5034416;28;20217;-68
2023/02/10 01:23:44;;;;;;;6.05;4.32;;;17.90;42.30;;;;;;5034577;28;20185;-68
2023/02/10 01:26:12;;;;;;;5.97;4.10;;;17.90;42.30;;;;;;5034002;28;20274;-68
2023/02/10 01:28:40;;;;;;;6.00;4.47;;;17.90;42.40;;;;;;5034097;28;20712;-68
2023/02/10 01:31:08;;;;;;;4.53;3.63;;;17.90;42.40;;;;;;5016807;28;20238;-68
2023/02/10 01:33:35;;;;;;;5.72;4.07;;;17.90;42.30;;;;;;5033092;28;20242;-68
2023/02/10 01:36:05;;;;;;;5.85;3.88;;;17.90;42.40;;;;;;5032929;28;20228;-67
2023/02/10 01:38:33;;;;;;;5.22;3.88;;;17.90;42.40;;;;;;5034133;28;20193;-68
2023/02/10 01:41:01;;;;;;;5.47;4.03;;;17.90;42.40;;;;;;5034458;28;20220;-68
2023/02/10 01:43:29;;;;;;;5.53;3.92;;;17.80;42.30;;;;;;5016441;28;20235;-68
2023/02/10 01:45:56;;;;;;;6.88;4.05;;;17.80;42.30;;;;;;5033542;28;20220;-68
2023/02/10 01:48:25;;;;;;;5.55;3.67;;;17.80;42.30;;;;;;5016256;28;20551;-69
2023/02/10 01:50:55;;;;;;;5.35;3.63;;;17.80;42.40;;;;;;5034009;28;20239;-68
2023/02/10 01:53:23;;;;;;;4.03;3.22;;;17.80;43.00;;;;;;5034041;28;20263;-69
2023/02/10 01:55:55;;;;;;;4.47;3.42;;;17.80;42.40;;;;;;5033653;28;20632;-68
2023/02/10 01:58:28;;;;;;;5.05;3.78;;;17.80;42.40;;;;;;5033854;28;20243;-68
2023/02/10 02:00:56;;;;;;;5.05;3.80;;;17.80;42.40;;;;;;5034001;28;20274;-68
2023/02/10 02:03:23;;;;;;;5.90;3.55;;;17.80;42.40;;;;;;5033778;28;20255;-68
2023/02/10 02:05:51;;;;;;;5.53;3.70;;;17.80;42.40;;;;;;5033515;28;20725;-68
2023/02/10 02:08:20;;;;;;;6.45;3.58;;;17.80;42.40;;;;;;5034008;28;20197;-68
2023/02/10 02:11:00;;;;;;;6.55;3.65;;;17.80;42.40;;;;;;5033736;28;20251;-68
2023/02/10 02:13:51;;;;;;;5.32;3.50;;;17.80;42.40;;;;;;5033600;28;20188;-68
2023/02/10 02:16:29;;;;;;;5.32;4.05;;;17.80;42.40;;;;;;5033064;28;20729;-68
2023/02/10 02:19:02;;;;;;;5.72;3.55;;;17.80;42.40;;;;;;5033404;28;20197;-68
2023/02/10 02:21:55;;;;;;;4.97;3.60;;;17.80;42.40;;;;;;5033321;28;20282;-68
2023/02/10 02:24:59;;;;;;;4.00;3.50;;;17.80;42.40;;;;;;5033306;28;20566;-68
2023/02/10 02:27:54;;;;;;;4.68;3.28;;;17.80;42.60;;;;;;5011981;28;20621;-68
2023/02/10 02:30:54;;;;;;;5.47;3.38;;;17.70;42.40;;;;;;5033387;28;20278;-68
2023/02/10 02:33:25;;;;;;;4.55;3.30;;;17.70;42.50;;;;;;5031048;28;20588;-68
2023/02/10 02:36:00;;;;;;;5.35;3.70;;;17.70;42.50;;;;;;5032575;28;20236;-68
2023/02/10 02:38:28;;;;;;;3.88;3.17;;;17.70;42.40;;;;;;5032737;28;20196;-68
2023/02/10 02:40:55;;;;;;;5.03;3.63;;;17.70;42.50;;;;;;5032946;28;20262;-68
2023/02/10 02:43:23;;;;;;;4.60;3.60;;;17.70;42.50;;;;;;5033107;28;20195;-68
2023/02/10 02:45:59;;;;;;;4.55;3.08;;;17.70;42.50;;;;;;5032644;28;20220;-68
2023/02/10 02:48:44;;;;;;;5.70;3.83;;;17.70;42.50;;;;;;5032711;28;20559;-68
2023/02/10 02:51:18;;;;;;;5.30;3.80;;;17.70;42.50;;;;;;5032916;28;20212;-68
2023/02/10 02:53:52;;;;;;;4.45;3.67;;;17.70;42.50;;;;;;5032602;28;20234;-68
2023/02/10 02:56:31;;;;;;;4.75;3.90;;;17.70;42.50;;;;;;5032848;28;20266;-68
2023/02/10 02:59:04;;;;;;;4.90;3.60;;;17.70;42.50;;;;;;5015159;28;20227;-68
2023/02/10 03:01:36;;;;;;;4.65;3.47;;;17.70;42.50;;;;;;5032875;28;20263;-68
2023/02/10 03:04:05;;;;;;;5.13;3.45;;;17.70;42.60;;;;;;5015651;28;20242;-68
2023/02/10 03:06:33;;;;;;;4.28;3.72;;;17.70;42.60;;;;;;5032647;28;20244;-67
2023/02/10 03:09:00;;;;;;;4.38;3.20;;;17.70;42.60;;;;;;5015482;28;20196;-68
2023/02/10 03:11:27;;;;;;;4.03;3.63;;;17.70;42.60;;;;;;5032242;28;20600;-68
2023/02/10 03:13:54;;;;;;;3.90;3.50;;;17.70;42.60;;;;;;5032572;28;20247;-68
2023/02/10 03:16:21;;;;;;;4.15;3.30;;;17.70;42.60;;;;;;5032137;28;20232;-68
2023/02/10 03:18:48;;;;;;;4.07;2.70;;;17.60;42.50;;;;;;5033084;28;20192;-68
2023/02/10 03:21:18;;;;;;;4.50;3.50;;;17.70;42.60;;;;;;5032243;28;20220;-68
2023/02/10 03:23:45;;;;;;;4.40;3.33;;;17.70;42.60;;;;;;5032452;28;20192;-68
2023/02/10 03:26:13;;;;;;;4.38;3.28;;;17.70;42.60;;;;;;5032052;28;20562;-68
2023/02/10 03:28:40;;;;;;;3.90;3.10;;;17.60;42.50;;;;;;5014875;28;20193;-68
2023/02/10 03:31:08;;;;;;;3.45;2.97;;;17.60;42.50;;;;;;5032415;28;20274;-68
2023/02/10 03:33:36;;;;;;;4.75;3.15;;;17.60;42.60;;;;;;5032310;28;20247;-68
2023/02/10 03:36:04;;;;;;;4.07;3.20;;;17.60;42.50;;;;;;5032103;28;20227;-68
2023/02/10 03:38:33;;;;;;;3.08;2.47;;;17.60;42.50;;;;;;5014485;28;20246;-68
2023/02/10 03:41:00;;;;;;;3.22;2.92;;;17.60;42.50;;;;;;5032254;28;20632;-68
2023/02/10 03:43:28;;;;;;;3.65;3.03;;;17.60;43.20;;;;;;5031958;28;20601;-68
2023/02/10 03:45:55;;;;;;;4.20;3.08;;;17.60;42.50;;;;;;5032074;28;20224;-68
2023/02/10 03:48:26;;;;;;;2.92;2.63;;;17.60;42.50;;;;;;5034031;28;20184;-68
2023/02/10 03:50:53;;;;;;;3.50;3.08;;;17.60;42.50;;;;;;5035895;28;20246;-69
2023/02/10 03:53:20;;;;;;;3.70;3.08;;;17.60;42.50;;;;;;5035839;28;20732;-68
2023/02/10 03:55:49;;;;;;;4.18;3.17;;;17.60;42.50;;;;;;5035835;28;20706;-68
2023/02/10 03:58:16;;;;;;;3.28;2.72;;;17.60;42.50;;;;;;5036163;28;20188;-68
2023/02/10 04:00:43;;;;;;;3.25;2.75;;;17.60;42.60;;;;;;5035976;28;20697;-68
2023/02/10 04:03:10;;;;;;;3.72;2.90;;;17.60;42.50;;;;;;5035774;28;20239;-69
2023/02/10 04:05:37;;;;;;;3.17;2.78;;;17.60;42.50;;;;;;5035962;28;20648;-68
2023/02/10 04:08:05;;;;;;;3.67;2.97;;;17.60;42.50;;;;;;5035997;28;20188;-68
2023/02/10 04:10:33;;;;;;;3.53;2.90;;;17.50;42.40;;;;;;5035608;28;20216;-68
2023/02/10 04:13:01;;;;;;;3.55;2.90;;;17.50;42.40;;;;;;5035814;28;20192;-68
2023/02/10 04:15:28;;;;;;;4.15;3.28;;;17.50;42.40;;;;;;5035561;28;20228;-68
2023/02/10 04:17:56;;;;;;;4.03;2.75;;;17.50;42.40;;;;;;5036000;28;20224;-68
2023/02/10 04:20:24;;;;;;;4.90;2.90;;;17.50;42.40;;;;;;5035947;28;20216;-68
2023/02/10 04:22:52;;;;;;;2.97;2.67;;;17.50;42.40;;;;;;5035320;28;20188;-68
2023/02/10 04:25:19;;;;;;;3.53;2.90;;;17.50;42.40;;;;;;5035517;28;20223;-68
2023/02/10 04:27:46;;;;;;;3.72;2.70;;;17.50;42.40;;;;;;5035233;28;20188;-68
2023/02/10 04:30:15;;;;;;;3.22;2.90;;;17.50;42.40;;;;;;5035235;28;20637;-68
2023/02/10 04:32:42;;;;;;;3.80;3.00;;;17.50;42.40;;;;;;5035426;28;20189;-65
2023/02/10 04:35:10;;;;;;;2.92;2.63;;;17.50;42.40;;;;;;5035410;28;20220;-65
2023/02/10 04:37:37;;;;;;;2.78;2.45;;;17.50;42.40;;;;;;5034979;28;20699;-67
2023/02/10 04:40:05;;;;;;;3.50;3.00;;;17.50;42.40;;;;;;5017431;28;20252;-68
2023/02/10 04:42:32;;;;;;;2.92;2.55;;;17.50;42.40;;;;;;5034992;28;20211;-68
2023/02/10 04:44:59;;;;;;;2.90;2.60;;;17.50;42.40;;;;;;5035266;28;20639;-68
2023/02/10 04:47:29;;;;;;;3.00;2.60;;;17.50;42.40;;;;;;5034913;28;20721;-68
2023/02/10 04:49:56;;;;;;;2.80;2.40;;;17.50;42.40;;;;;;5034855;28;20737;-68
2023/02/10 04:52:23;;;;;;;2.65;2.40;;;17.50;42.40;;;;;;5035041;28;20535;-68
2023/02/10 04:54:51;;;;;;;3.17;2.53;;;17.50;42.40;;;;;;5035065;28;20220;-68
2023/02/10 04:57:18;;;;;;;3.05;2.70;;;17.40;42.30;;;;;;5034775;28;20216;-68
2023/02/10 04:59:45;;;;;;;2.83;2.50;;;17.50;42.40;;;;;;5033800;28;20189;-68
2023/02/10 05:02:12;;;;;;;3.65;2.75;;;17.50;42.40;;;;;;5034838;28;20589;-68
2023/02/10 05:04:41;;;;;;;2.97;2.38;;;17.50;42.40;;;;;;5034574;28;20196;-68
2023/02/10 05:07:08;;;;;;;2.72;2.22;;;17.40;42.30;;;;;;5034748;28;20604;-68
2023/02/10 05:09:36;;;;;;;3.00;2.50;;;17.40;42.90;;;;;;5034790;28;20188;-68
2023/02/10 05:12:03;;;;;;;3.03;2.63;;;17.40;42.30;;;;;;5034553;28;20765;-68
2023/02/10 05:14:30;;;;;;;2.78;2.22;;;17.40;42.30;;;;;;5034750;28;20193;-68
2023/02/10 05:16:57;;;;;;;2.60;2.40;;;17.40;42.30;;;;;;5034480;28;20247;-68
2023/02/10 05:19:24;;;;;;;2.72;2.35;;;17.40;42.30;;;;;;5034962;28;20274;-68
2023/02/10 05:21:53;;;;;;;3.45;2.50;;;17.40;42.30;;;;;;5034615;28;20266;-68
2023/02/10 05:24:20;;;;;;;2.58;2.38;;;17.40;42.30;;;;;;5034651;28;20254;-68
2023/02/10 05:26:48;;;;;;;2.55;2.35;;;17.40;42.30;;;;;;5034567;28;20223;-68
2023/02/10 05:29:15;;;;;;;4.03;2.60;;;17.40;42.30;;;;;;5034264;28;20224;-68
2023/02/10 05:31:42;;;;;;;3.03;2.50;;;17.40;42.30;;;;;;5034222;28;20270;-68
2023/02/10 05:34:09;;;;;;;3.20;2.78;;;17.40;42.40;;;;;;5034137;28;20654;-68
2023/02/10 05:36:37;;;;;;;3.60;2.72;;;17.40;42.30;;;;;;5034665;28;20224;-68
2023/02/10 05:39:24;;;;;;;2.50;2.28;;;17.40;42.30;;;;;;5034246;28;20341;-68
2023/02/10 05:41:51;;;;;;;2.78;2.38;;;17.40;42.30;;;;;;5034428;28;20220;-68
2023/02/10 05:44:19;;;;;;;2.85;2.55;;;17.30;42.20;;;;;;5000401;28;20232;-68
2023/02/10 05:46:46;;;;;;;2.92;2.63;;;17.40;42.40;;;;;;5033712;28;20764;-68
2023/02/10 05:49:14;;;;;;;2.80;2.53;;;17.40;42.30;;;;;;5034138;28;20192;-68
2023/02/10 05:51:41;;;;;;;4.15;2.65;;;17.40;42.40;;;;;;5016554;28;20273;-69
2023/02/10 05:54:10;;;;;;;2.80;2.20;;;17.40;42.40;;;;;;5033747;28;20184;-68
2023/02/10 05:56:38;;;;;;;3.03;2.67;;;17.40;42.40;;;;;;5033996;28;20228;-68
2023/02/10 05:59:05;;;;;;;3.38;2.45;;;17.40;42.40;;;;;;5033828;28;20192;-68
2023/02/10 06:01:33;;;;;;;3.65;2.45;;;17.40;42.40;;;;;;5034077;28;20220;-69
2023/02/10 06:04:01;;;;;;;2.50;2.17;;;17.50;42.40;;;;;;5033427;28;20712;-68
2023/02/10 06:06:28;;;;;;;2.92;2.15;;;17.50;42.40;;;;;;5033953;28;20254;-68
2023/02/10 06:08:55;;;;;;;3.28;2.58;;;17.50;42.40;;;;;;5033775;28;20602;-68
2023/02/10 06:11:24;;;;;;;3.28;2.40;;;17.50;42.40;;;;;;5033306;28;20629;-68
2023/02/10 06:13:51;;;;;;;3.85;2.55;;;17.50;42.40;;;;;;5033309;28;20658;-67
2023/02/10 06:16:18;;;;;;;3.05;2.10;;;17.60;42.50;;;;;;5033339;28;20236;-69
2023/02/10 06:18:47;;;;;;;2.58;2.08;;;17.60;42.40;;;;;;5033541;28;20286;-68
2023/02/10 06:21:14;;;;;;;2.90;2.38;;;17.50;42.40;;;;;;5033171;28;20621;-68
2023/02/10 06:23:41;;;;;;;2.47;2.28;;;17.60;42.40;;;;;;5033155;28;20188;-69
2023/02/10 06:26:09;;;;;;;2.72;2.30;;;17.60;42.40;;;;;;5033462;28;20282;-68
2023/02/10 06:28:38;;;;;;;2.83;2.20;;;17.70;42.50;;;;;;5033090;28;20250;-68
2023/02/10 06:31:07;;;;;;;3.42;1.98;;;17.70;42.40;;;;;;5033441;28;20221;-68
2023/02/10 06:33:35;;;;;;;2.78;2.47;;;17.70;42.40;;;;;;5033033;28;20216;-68
2023/02/10 06:36:05;;;;;;;3.05;2.28;;;17.70;42.40;;;;;;5033001;28;20689;-68
2023/02/10 06:38:32;;;;;;;2.42;2.10;;;17.70;42.40;;;;;;5032772;28;20223;-68
2023/02/10 06:41:00;;;;;;;2.45;2.20;;;17.70;42.40;;;;;;5033180;28;20226;-68
2023/02/10 06:43:27;;;;;;;2.63;2.20;;;17.80;42.40;;;;;;5033294;28;20188;-68
2023/02/10 06:45:56;;;;;;;2.40;2.10;;;17.80;42.40;;;;;;5033029;28;20224;-69
2023/02/10 06:48:23;;;;;;;2.95;2.55;;;17.80;42.40;;;;;;5032982;28;20192;-68
2023/02/10 06:50:50;;;;;;;3.13;2.35;;;17.80;42.40;;;;;;5032785;28;20216;-68
2023/02/10 06:53:17;;;;;;;2.90;2.47;;;17.80;42.30;;;;;;5032907;28;20239;-68
2023/02/10 06:55:45;;;;;;;2.70;2.17;;;17.80;42.30;;;;;;5032923;28;20220;-68
2023/02/10 06:58:12;;;;;;;3.10;2.50;;;17.80;42.30;;;;;;5032447;28;20274;-68
2023/02/10 07:00:39;;;;;;;2.63;2.42;;;17.90;43.00;;;;;;5015132;28;20216;-67
2023/02/10 07:03:08;;;;;;;2.67;2.25;;;17.90;42.40;;;;;;5032392;28;20615;-69
2023/02/10 07:05:36;;;;;;;2.95;2.20;;;17.90;42.30;;;;;;5032612;28;20216;-68
2023/02/10 07:08:04;;;;;;;2.80;2.35;;;17.90;42.30;;;;;;5027896;28;20247;-68
2023/02/10 07:10:32;;;;;;;2.92;2.20;;;17.90;42.30;;;;;;5032367;28;20787;-68
2023/02/10 07:12:59;;;;;;;3.33;2.38;;;17.90;42.30;;;;;;5032706;28;20223;-69
2023/02/10 07:15:26;;;;;;;4.00;2.50;;;17.90;42.30;;;;;;5032302;28;20281;-68
2023/02/10 07:17:53;;;;;;;2.65;1.77;;;17.90;42.20;;;;;;5032479;28;20220;-68
2023/02/10 07:20:23;;;;;;;3.00;1.98;;;18.00;42.30;;;;;;5032727;28;20216;-68
2023/02/10 07:22:51;;;;;;;2.67;2.00;;;17.90;42.20;;;;;;5032008;28;20185;-68
2023/02/10 07:25:18;;;;;;;2.72;2.08;;;18.00;42.30;;;;;;5032158;28;20219;-68
2023/02/10 07:27:46;;;;;;;2.42;2.15;;;18.00;42.30;;;;;;5032477;28;20196;-68
2023/02/10 07:30:14;;;;;;;2.75;2.15;;;18.00;42.30;;;;;;5032150;28;20307;-68
2023/02/10 07:32:44;;;;;;;3.38;2.20;;;18.00;42.20;;;;;;5032028;28;20197;-68
2023/02/10 07:35:11;;;;;;;2.80;2.00;;;18.00;42.20;;;;;;5032323;28;20216;-68
2023/02/10 07:37:40;;;;;;;2.88;2.28;;;18.00;42.20;;;;;;5032098;28;20262;-68
2023/02/10 07:40:09;;;;;;;2.13;1.90;;;18.00;42.20;;;;;;5031866;28;20263;-69
2023/02/10 07:42:36;;;;;;;3.38;1.98;;;18.00;42.20;;;;;;5024341;28;20244;-68
2023/02/10 07:45:04;;;;;;;2.65;2.03;;;18.10;42.30;;;;;;5012621;28;20295;-68
2023/02/10 07:47:31;;;;;;;2.42;2.20;;;18.10;42.30;;;;;;5011636;28;20252;-68
2023/02/10 07:49:58;;;;;;;2.45;2.05;;;18.10;42.20;;;;;;5031045;28;20238;-68
2023/02/10 07:52:25;;;;;;;2.72;2.45;;;18.10;42.20;;;;;;5008418;28;20200;-69
2023/02/10 07:54:55;;;;;;;3.35;2.20;;;18.10;42.20;;;;;;5019275;28;20201;-68
2023/02/10 07:57:22;;;;;;;2.40;2.20;;;18.10;42.20;;;;;;5023006;28;20216;-69
2023/02/10 07:59:50;;;;;;;2.63;2.20;;;18.10;42.20;;;;;;5031574;28;20185;-68
2023/02/10 08:02:17;;;;;;;3.17;2.30;;;18.20;42.30;;;;;;5031158;28;20185;-68
2023/02/10 08:04:44;;;;;;;2.50;2.20;;;18.20;42.30;;;;;;5013901;28;20304;-68
2023/02/10 08:07:11;;;;;;;2.30;2.10;;;18.20;42.20;;;;;;5031216;28;20192;-68
2023/02/10 08:09:39;;;;;;;2.50;2.08;;;18.20;42.20;;;;;;5031036;28;20192;-69
2023/02/10 08:12:08;;;;;;;5.78;2.47;;;18.30;42.30;;;;;;5023598;28;20251;-68
2023/02/10 08:14:35;;;;;;;5.57;2.28;;;18.30;42.30;;;;;;5019214;28;20259;-68
2023/02/10 08:17:02;;;;;;;2.92;2.13;;;18.30;42.20;;;;;;5016343;28;20236;-69
2023/02/10 08:19:29;;;;;;;5.95;2.72;;;18.30;42.20;;;;;;5016684;28;20864;-68
2023/02/10 08:21:56;;;;;;;6.72;2.55;;;18.30;42.90;;;;;;5025584;28;20224;-68
2023/02/10 08:24:23;;;;;;;9.23;2.72;;;18.30;42.20;;;;;;5027119;28;20196;-69
2023/02/10 08:26:50;;;;;;;4.88;2.67;;;18.40;42.40;;;;;;5019391;28;20871;-68
2023/02/10 08:29:19;;;;;;;4.60;2.30;;;18.30;42.10;;;;;;5017664;28;20721;-68
2023/02/10 08:31:49;;;;;;;5.72;2.50;;;18.40;42.20;;;;;;5025663;28;20232;-68
2023/02/10 08:34:17;;;;;;;4.93;2.83;;;18.30;42.10;;;;;;5010927;28;20193;-68
2023/02/10 08:36:44;;;;;;;10.35;2.67;;;18.30;42.10;;;;;;5030127;28;20221;-68
2023/02/10 08:39:12;;;;;;;2.70;2.30;;;18.30;42.10;;;;;;5030476;28;20752;-68
2023/02/10 08:41:39;;;;;;;3.45;2.53;;;18.30;42.10;;;;;;5030963;28;20220;-68
2023/02/10 08:44:06;;;;;;;3.45;2.60;;;18.30;42.10;;;;;;5030996;28;20185;-68
2023/02/10 08:46:35;;;;;;;5.97;2.38;;;18.30;42.10;;;;;;5030797;28;20212;-68
2023/02/10 08:49:02;;;;;;;4.50;2.65;;;18.30;42.10;;;;;;5031418;28;20195;-68
2023/02/10 08:51:31;;;;;;;2.80;2.50;;;18.40;42.20;;;;;;5029445;28;20220;-68
2023/02/10 08:54:00;;;;;;;6.35;2.80;;;18.30;42.10;;;;;;5021511;28;20681;-69
2023/02/10 08:56:27;;;;;;;4.80;2.75;;;18.30;42.20;;;;;;5023132;28;20220;-68
2023/02/10 08:58:54;;;;;;;11.20;2.50;;;18.30;42.10;;;;;;5034682;28;20216;-69
2023/02/10 09:01:23;;;;;;;13.10;2.60;;;18.40;42.20;;;;;;5034307;28;20221;-68
2023/02/10 09:03:52;;;;;;;9.23;2.85;;;18.40;42.30;;;;;;5025781;28;20806;-67
2023/02/10 09:06:21;;;;;;;3.63;2.70;;;18.40;42.30;;;;;;5014145;28;20225;-70
2023/02/10 09:08:50;;;;;;;3.72;2.78;;;18.40;42.30;;;;;;5029452;28;20258;-70
2023/02/10 09:11:17;;;;;;;3.75;2.50;;;18.40;42.30;;;;;;5033992;28;20706;-69
2023/02/10 09:13:44;;;;;;;6.45;2.30;;;18.40;42.30;;;;;;5048017;28;20242;-70
2023/02/10 09:16:12;;;;;;;4.43;2.20;;;18.40;42.20;;;;;;5053453;28;20281;-69
2023/02/10 09:18:39;;;;;;;3.13;2.40;;;18.40;42.20;;;;;;5053875;28;20227;-70
2023/02/10 09:21:07;;;;;;;3.95;2.63;;;18.40;42.20;;;;;;5053873;28;20269;-69
2023/02/10 09:23:34;;;;;;;6.43;2.60;;;18.40;42.20;;;;;;5053819;28;20273;-71
2023/02/10 09:26:01;;;;;;;8.38;2.45;;;18.40;42.20;;;;;;5040043;28;20228;-68
2023/02/10 09:28:29;;;;;;;5.30;2.55;;;18.50;42.30;;;;;;5030811;28;20623;-68
2023/02/10 09:30:56;;;;;;;4.43;2.47;;;18.50;42.40;;;;;;5024339;28;20220;-68
2023/02/10 09:33:24;;;;;;;4.10;1.95;;;18.50;42.40;;;;;;5024599;28;20242;-69
2023/02/10 09:35:52;;;;;;;3.47;2.30;;;18.50;42.40;;;;;;5019320;28;20212;-68
2023/02/10 09:38:20;;;;;;;3.08;2.40;;;18.50;42.20;;;;;;5032825;28;20267;-68
2023/02/10 09:40:53;;;;;;;3.53;2.20;;;18.50;42.20;;;;;;5037601;28;20188;-68
2023/02/10 09:43:35;;;;;;;5.13;2.20;;;18.50;42.20;;;;;;5033775;28;20223;-68
2023/02/10 09:46:07;;;;;;;4.10;2.00;;;18.50;42.20;;;;;;5030209;28;20306;-68
2023/02/10 09:48:50;;;;;;;3.80;2.28;;;18.50;42.20;;;;;;5044860;28;20609;-68
2023/02/10 09:51:30;;;;;;;5.43;2.70;;;18.50;42.20;;;;;;5047023;28;20217;-68
2023/02/10 09:53:59;;;;;;;3.95;2.40;;;18.50;42.20;;;;;;5033118;28;20197;-68
2023/02/10 09:56:27;;;;;;;3.03;1.77;;;18.50;42.20;;;;;;5033041;28;20276;-68
2023/02/10 09:58:56;;;;;;;6.07;2.00;;;18.50;42.80;;;;;;5032857;28;20212;-69
2023/02/10 10:01:26;;;;;;;4.35;2.53;;;18.60;42.30;;;;;;5033439;28;20216;-68
2023/02/10 10:04:00;;;;;;;5.25;2.40;;;18.50;42.20;;;;;;5028139;28;20201;-68
2023/02/10 10:06:30;;;;;;;11.00;2.50;;;18.60;42.50;;;;;;5030689;28;20223;-68
2023/02/10 10:09:20;;;;;;;6.60;2.15;;;18.60;42.70;;;;;;5031257;28;20188;-68
2023/02/10 10:11:49;;;;;;;6.70;2.45;;;18.60;42.60;;;;;;5031273;28;20307;-68
2023/02/10 10:14:19;;;;;;;8.63;2.25;;;18.60;42.70;;;;;;5030694;28;20661;-69
2023/02/10 10:17:11;;;;;;;3.55;2.40;;;18.60;42.80;;;;;;5030521;28;20236;-69
2023/02/10 10:19:53;;;;;;;7.63;2.25;;;18.70;42.90;;;;;;5027315;28;20212;-69
2023/02/10 10:22:31;;;;;;;3.95;2.08;;;18.70;42.90;;;;;;5024557;28;20228;-68
2023/02/10 10:25:28;;;;;;;4.22;2.15;;;18.70;42.90;;;;;;5026134;28;20196;-70
2023/02/10 10:28:08;;;;;;;3.10;1.90;;;18.70;43.10;;;;;;5011115;28;20224;-69
2023/02/10 10:30:44;;;;;;;6.28;2.10;;;18.70;43.10;;;;;;5026148;28;20764;-69
2023/02/10 10:33:22;;;;;;;6.78;2.03;;;18.70;42.90;;;;;;5022214;28;20196;-69
2023/02/10 10:35:50;;;;;;;9.13;2.20;;;18.70;43.10;;;;;;5024040;28;20276;-68
2023/02/10 10:38:21;;;;;;;6.95;2.25;;;18.70;43.10;;;;;;5023697;28;20384;-68
2023/02/10 10:40:54;;;;;;;4.07;2.08;;;18.80;43.30;;;;;;5025190;28;20283;-69
2023/02/10 10:43:27;;;;;;;4.28;2.15;;;18.80;43.30;;;;;;5024723;28;20193;-69
2023/02/10 10:45:58;;;;;;;10.98;2.90;;;18.80;43.10;;;;;;5012495;28;21101;-70
2023/02/10 10:48:29;;;;;;;9.00;2.33;;;18.80;43.10;;;;;;5025074;28;20189;-69
2023/02/10 10:50:59;;;;;;;4.07;2.08;;;18.90;43.30;;;;;;5024420;28;20200;-69
2023/02/10 10:53:38;;;;;;;5.15;2.45;;;18.90;43.20;;;;;;5024451;28;20197;-69
2023/02/10 10:56:12;;;;;;;4.88;2.33;;;18.90;43.10;;;;;;5024971;28;20223;-69
2023/02/10 10:58:44;;;;;;;6.95;2.13;;;18.90;43.10;;;;;;5023406;28;20780;-69
2023/02/10 11:01:12;;;;;;;7.60;2.28;;;18.90;43.10;;;;;;5025073;28;20216;-70
2023/02/10 11:03:39;;;;;;;5.97;2.13;;;18.90;43.00;;;;;;5021803;28;20214;-69
2023/02/10 11:06:10;;;;;;;4.88;1.92;;;18.90;43.00;;;;;;5017644;28;20220;-69
2023/02/10 11:08:41;;;;;;;7.28;2.35;;;18.90;43.00;;;;;;5020919;28;20243;-69
2023/02/10 11:11:12;;;;;;;6.40;1.90;;;18.90;43.10;;;;;;5010652;28;20580;-70
2023/02/10 11:13:41;;;;;;;4.80;2.03;;;18.90;43.00;;;;;;5028025;28;20632;-68
2023/02/10 11:16:11;;;;;;;3.65;1.80;;;18.90;43.00;;;;;;5009099;28;20225;-69
2023/02/10 11:18:38;;;;;;;5.72;1.83;;;18.90;43.20;;;;;;5014068;28;20701;-69
2023/02/10 11:21:08;;;;;;;6.75;1.67;;;18.90;43.00;;;;;;5025779;28;20196;-69
2023/02/10 11:23:48;;;;;;;8.77;2.25;;;18.90;42.90;;;;;;5025792;28;20654;-70
2023/02/10 11:26:21;;;;;;;3.13;1.70;;;18.90;43.00;;;;;;5025469;28;20219;-70
2023/02/10 11:28:49;;;;;;;3.08;1.83;;;18.90;42.90;;;;;;5025611;28;20195;-69
2023/02/10 11:31:31;;;;;;;4.18;1.58;;;18.90;42.90;;;;;;5023411;28;20224;-69
2023/02/10 11:34:02;;;;;;;4.85;2.10;;;19.00;42.90;;;;;;5025821;28;20192;-69
2023/02/10 11:36:36;;;;;;;2.33;1.52;;;18.90;42.70;;;;;;5027633;28;20220;-69
2023/02/10 11:39:07;;;;;;;3.88;1.80;;;18.90;42.60;;;;;;5013373;28;20226;-69
2023/02/10 11:41:35;;;;;;;4.15;1.60;;;18.90;42.50;;;;;;5029806;28;20645;-69
2023/02/10 11:44:04;;;;;;;4.65;1.55;;;19.00;42.50;;;;;;5030226;28;20208;-70
2023/02/10 11:46:32;;;;;;;3.40;1.50;;;19.00;42.40;;;;;;5029541;28;20680;-70
2023/02/10 11:49:01;;;;;;;2.30;1.30;;;19.00;42.40;;;;;;5030007;28;20199;-69
2023/02/10 11:51:30;;;;;;;2.47;1.65;;;19.00;42.30;;;;;;5029844;28;20228;-69
2023/02/10 11:53:59;;;;;;;4.07;1.60;;;19.00;42.20;;;;;;5029970;28;20247;-69
2023/02/10 11:59:31;;;;;;;4.70;1.60;;;19.00;42.20;;;;;;5030204;28;20301;-69
2023/02/10 12:02:03;;;;;;;4.00;1.42;;;19.00;42.10;;;;;;5030020;28;20270;-69
2023/02/10 12:05:02;;;;;;;3.67;1.50;;;18.90;42.00;;;;;;5029185;28;20226;-69
2023/02/10 12:07:42;;;;;;;2.58;1.40;;;19.00;42.10;;;;;;4949316;29;20219;-69
2023/02/10 12:10:18;;;;;;;2.47;1.20;;;19.00;42.10;;;;;;4951736;28;20277;-69
2023/02/10 12:12:54;;;;;;;2.92;1.15;;;19.00;42.10;;;;;;4953183;29;20219;-69
2023/02/10 12:15:36;;;;;;;5.63;1.65;;;19.00;42.10;;;;;;4952511;29;20218;-69
2023/02/10 12:18:20;;;;;;;3.95;1.50;;;19.00;42.00;;;;;;4952950;29;20223;-69
2023/02/10 12:21:02;;;;;;;3.58;1.40;;;19.00;42.00;;;;;;4952664;29;20195;-69
2023/02/10 12:23:48;;;;;;;2.95;1.23;;;19.00;41.90;;;;;;4953056;29;20678;-69
2023/02/10 12:26:22;;;;;;;2.53;1.40;;;19.00;41.90;;;;;;4952506;29;20200;-69
2023/02/10 12:29:03;;;;;;;3.28;1.30;;;19.00;41.90;;;;;;4952590;29;20200;-69
2023/02/10 12:31:42;;;;;;;5.05;1.20;;;19.00;41.80;;;;;;4949719;29;20214;-69
2023/02/10 12:34:34;;;;;;;4.93;1.40;;;19.00;41.70;;;;;;4952773;29;20191;-69
2023/02/10 12:37:11;;;;;;;1.92;1.40;;;19.00;41.70;;;;;;4952625;29;20231;-69
2023/02/10 12:39:44;;;;;;;1.52;1.00;;;19.00;41.70;;;;;;4951963;29;20266;-69
2023/02/10 12:42:29;;;;;;;2.55;1.33;;;19.00;41.70;;;;;;4951487;29;20227;-69
2023/02/10 12:45:05;;;;;;;2.90;1.38;;;19.00;41.70;;;;;;5006226;28;20196;-69
2023/02/10 12:47:42;;;;;;;2.95;1.20;;;19.00;41.80;;;;;;5032893;28;20227;-69
2023/02/10 12:50:26;;;;;;;4.00;1.40;;;19.00;41.80;;;;;;5033272;28;20219;-69
2023/02/10 12:52:59;;;;;;;2.90;1.40;;;19.00;41.70;;;;;;5032944;28;20297;-68
2023/02/10 12:55:36;;;;;;;5.05;1.50;;;19.00;41.70;;;;;;5026917;28;20540;-69
2023/02/10 12:58:09;;;;;;;2.80;1.42;;;19.00;41.70;;;;;;5027845;28;20854;-69
2023/02/10 13:00:40;;;;;;;6.43;1.50;;;18.90;41.70;;;;;;5021861;28;20294;-69
2023/02/10 13:03:12;;;;;;;2.95;1.20;;;18.90;41.70;;;;;;5027922;28;20224;-69
2023/02/10 13:05:44;;;;;;;5.70;1.48;;;18.90;41.70;;;;;;5025636;28;20263;-69